チュニス の空港の天気 - METARとTAF

チュニス・カルタゴ国際空港 ( DTTA / TUN ) - チュニジア チュニス
飛行場実況気象(Metar)
観測時間10/20 05:00 CET (10/20 04:00 UTC)
風向・風速南南東 5m/s
視程10km以上
天気現象
少しの雲 雲底高度 1010m
気温22℃
湿度65%
気圧1015hPa
METARDTTA 200400Z 16009KT 9999 FEW033 22/15 Q1015
過去の天気等 Google飛行場航空写真 Wunderground天気予報

過去48時間のMETAR

飛行場予報(TAF)
発表時間: 10/20 00:00 CET (10/19 23:00 UTC)
予報対象時間: 20日1時 CET ~ 21日1時 CET
風向・風速南南東 4m/s
視程10km以上
なし
20日11時 CET ~ 20日13時 CET に徐々に
風向・風速南 6m/s
20日21時 CET ~ 20日23時 CET に徐々に
風向・風速南南東 3m/s
TAF DTTA 192300Z 2000/2024 16008KT CAVOK
BECMG 2010/2012 17012KT
BECMG 2020/2022 16005KT